createdAt,value
2022-08-19T00:00:08.574Z,17.91
2022-08-19T00:02:37.790Z,17.93
2022-08-19T00:05:20.514Z,17.87
2022-08-19T00:07:49.739Z,17.78
2022-08-19T00:10:23.089Z,17.69
2022-08-19T00:12:52.391Z,17.67
2022-08-19T00:15:24.947Z,17.64
2022-08-19T00:17:53.361Z,17.63
2022-08-19T00:20:28.286Z,17.58
2022-08-19T00:23:05.140Z,17.59
2022-08-19T00:25:35.570Z,17.64
2022-08-19T00:28:06.596Z,17.68
2022-08-19T00:30:34.974Z,17.64
2022-08-19T00:33:04.472Z,17.55
2022-08-19T00:35:36.936Z,17.58
2022-08-19T00:38:07.317Z,17.68
2022-08-19T00:40:37.592Z,17.70
2022-08-19T00:43:14.142Z,17.68
2022-08-19T00:45:45.929Z,17.66
2022-08-19T00:48:14.823Z,17.63
2022-08-19T00:50:52.100Z,17.53
2022-08-19T00:53:27.489Z,17.62
2022-08-19T00:55:58.580Z,17.59
2022-08-19T00:58:31.394Z,17.61
2022-08-19T01:00:59.937Z,17.72
2022-08-19T01:03:28.295Z,17.74
2022-08-19T01:05:58.423Z,17.75
2022-08-19T01:08:31.324Z,17.85
2022-08-19T01:11:03.128Z,17.89
2022-08-19T01:13:49.183Z,17.80
2022-08-19T01:16:20.512Z,17.78
2022-08-19T01:18:53.115Z,17.78
2022-08-19T01:21:29.148Z,17.68
2022-08-19T01:24:06.394Z,17.61
2022-08-19T01:26:42.069Z,17.53
2022-08-19T01:29:11.656Z,17.51
2022-08-19T01:31:40.355Z,17.54
2022-08-19T01:34:13.439Z,17.55
2022-08-19T01:36:48.365Z,17.51
2022-08-19T01:39:29.913Z,17.44
2022-08-19T01:41:58.340Z,17.53
2022-08-19T01:44:29.873Z,17.44
2022-08-19T01:46:58.381Z,17.34
2022-08-19T01:49:27.660Z,17.25
2022-08-19T01:51:58.388Z,17.25
2022-08-19T01:54:28.181Z,17.23
2022-08-19T01:57:03.836Z,17.18
2022-08-19T01:59:33.660Z,17.15
2022-08-19T02:02:02.212Z,17.14
2022-08-19T02:04:30.586Z,17.07
2022-08-19T02:07:00.020Z,17.07
2022-08-19T02:09:30.848Z,17.05
2022-08-19T02:11:59.486Z,17.09
2022-08-19T02:14:28.808Z,17.01
2022-08-19T02:17:00.748Z,16.98
2022-08-19T02:19:29.350Z,16.93
2022-08-19T02:21:57.630Z,16.85
2022-08-19T02:24:28.590Z,16.89
2022-08-19T02:27:00.914Z,16.80
2022-08-19T02:29:29.256Z,16.79
2022-08-19T02:31:58.079Z,16.77
2022-08-19T02:34:30.454Z,16.79
2022-08-19T02:37:03.447Z,16.84
2022-08-19T02:39:31.202Z,16.77
2022-08-19T02:42:02.237Z,16.73
2022-08-19T02:44:32.147Z,16.63
2022-08-19T02:47:01.299Z,16.70
2022-08-19T02:49:30.181Z,16.69
2022-08-19T02:52:07.557Z,16.57
2022-08-19T02:54:36.071Z,16.62
2022-08-19T02:57:06.602Z,16.70
2022-08-19T02:59:35.325Z,16.67
2022-08-19T03:02:03.855Z,16.67
2022-08-19T03:04:34.094Z,16.69
2022-08-19T03:07:10.783Z,16.63
2022-08-19T03:09:44.883Z,16.60
2022-08-19T03:12:16.885Z,16.59
2022-08-19T03:14:49.232Z,16.51
2022-08-19T03:17:19.081Z,16.52
2022-08-19T03:19:50.586Z,16.48
2022-08-19T03:22:22.824Z,16.46
2022-08-19T03:24:51.277Z,16.39
2022-08-19T03:27:22.587Z,16.44
2022-08-19T03:29:51.576Z,16.43
2022-08-19T03:32:32.550Z,16.41
2022-08-19T03:35:01.845Z,16.35
2022-08-19T03:37:30.674Z,16.36
2022-08-19T03:39:59.074Z,16.36
2022-08-19T03:42:38.513Z,16.36
2022-08-19T03:45:17.683Z,16.36
2022-08-19T03:47:46.498Z,16.39
2022-08-19T03:50:16.045Z,16.32
2022-08-19T03:52:46.987Z,16.18
2022-08-19T03:55:15.587Z,16.25
2022-08-19T03:57:46.127Z,16.24
2022-08-19T04:00:19.019Z,16.27
2022-08-19T04:02:58.331Z,16.21
2022-08-19T04:05:32.869Z,16.22
2022-08-19T04:08:01.817Z,16.14
2022-08-19T04:10:30.370Z,16.18
2022-08-19T04:13:00.089Z,16.15
2022-08-19T04:15:34.514Z,16.18
2022-08-19T04:18:03.093Z,16.14
2022-08-19T04:20:33.412Z,16.04
2022-08-19T04:23:04.323Z,16.04
2022-08-19T04:25:37.997Z,16.07
2022-08-19T04:28:08.249Z,16.14
2022-08-19T04:30:41.573Z,16.13
2022-08-19T04:33:10.675Z,16.11
2022-08-19T04:35:41.233Z,16.14
2022-08-19T04:38:10.201Z,16.12
2022-08-19T04:41:00.916Z,16.10
2022-08-19T04:43:30.780Z,16.05
2022-08-19T04:46:00.814Z,16.04
2022-08-19T04:48:29.848Z,16.04
2022-08-19T04:51:04.187Z,16.05
2022-08-19T04:53:38.050Z,16.06
2022-08-19T04:56:09.294Z,16.02
2022-08-19T04:58:41.997Z,16.04
2022-08-19T05:01:12.009Z,16.06
2022-08-19T05:03:44.059Z,16.08
2022-08-19T05:06:18.055Z,16.13
2022-08-19T05:08:48.171Z,16.11
2022-08-19T05:11:25.903Z,16.18
2022-08-19T05:13:57.087Z,16.20
2022-08-19T05:16:27.626Z,16.27
2022-08-19T05:19:14.831Z,16.31
2022-08-19T05:22:01.976Z,16.34
2022-08-19T05:24:31.860Z,16.42
2022-08-19T05:27:01.015Z,16.47
2022-08-19T05:29:40.125Z,16.57
2022-08-19T05:32:12.849Z,16.59
2022-08-19T05:34:41.269Z,16.62
2022-08-19T05:37:11.502Z,16.69
2022-08-19T05:39:41.540Z,16.76
2022-08-19T05:42:12.405Z,16.81
2022-08-19T05:44:46.977Z,16.90
2022-08-19T05:47:20.694Z,16.89
2022-08-19T05:49:50.808Z,17.03
2022-08-19T05:52:25.849Z,17.17
2022-08-19T05:54:56.858Z,17.26
2022-08-19T05:57:25.709Z,17.22
2022-08-19T05:59:58.145Z,17.40
2022-08-19T06:02:32.456Z,17.52
2022-08-19T06:05:01.217Z,17.58
2022-08-19T06:07:32.746Z,17.51
2022-08-19T06:10:01.566Z,17.63
2022-08-19T06:12:32.697Z,17.69
2022-08-19T06:15:03.721Z,17.67
2022-08-19T06:17:32.707Z,17.76
2022-08-19T06:20:04.462Z,17.80
2022-08-19T06:22:35.123Z,17.96
2022-08-19T06:25:05.139Z,17.94
2022-08-19T06:27:34.719Z,18.03
2022-08-19T06:30:05.660Z,18.09
2022-08-19T06:32:34.500Z,18.09
2022-08-19T06:35:05.543Z,18.19
2022-08-19T06:37:33.830Z,18.19
2022-08-19T06:40:02.445Z,18.15
2022-08-19T06:42:39.327Z,18.24
2022-08-19T06:45:15.806Z,18.29
2022-08-19T06:47:49.330Z,18.30
2022-08-19T06:50:18.249Z,18.47
2022-08-19T06:52:51.174Z,18.39
2022-08-19T06:55:19.540Z,18.46
2022-08-19T06:57:49.200Z,18.61
2022-08-19T07:00:19.181Z,18.66
2022-08-19T07:02:53.221Z,18.72
2022-08-19T07:05:41.179Z,18.86
2022-08-19T07:08:20.678Z,18.99
2022-08-19T07:10:52.380Z,19.12
2022-08-19T07:13:29.660Z,19.12
2022-08-19T07:16:05.741Z,18.95
2022-08-19T07:18:43.884Z,19.10
2022-08-19T07:21:15.767Z,19.13
2022-08-19T07:23:47.506Z,19.10
2022-08-19T07:26:18.091Z,19.06
2022-08-19T07:28:51.517Z,19.14
2022-08-19T07:31:31.169Z,19.38
2022-08-19T07:34:03.485Z,19.45
2022-08-19T07:36:33.592Z,19.10
2022-08-19T07:39:05.356Z,19.18
2022-08-19T07:41:33.987Z,19.27
2022-08-19T07:44:04.771Z,19.42
2022-08-19T07:46:35.871Z,19.62
2022-08-19T07:49:05.593Z,19.68
2022-08-19T07:51:36.523Z,19.94
2022-08-19T07:54:05.927Z,20.13
2022-08-19T07:56:37.535Z,20.06
2022-08-19T07:59:06.163Z,20.00
2022-08-19T08:01:41.832Z,20.11
2022-08-19T08:04:28.837Z,19.87
2022-08-19T08:07:14.863Z,19.82
2022-08-19T08:09:49.520Z,19.86
2022-08-19T08:12:34.161Z,19.92
2022-08-19T08:15:08.242Z,19.84
2022-08-19T08:17:49.044Z,19.94
2022-08-19T08:20:18.951Z,19.95
2022-08-19T08:23:06.079Z,19.94
2022-08-19T08:25:35.347Z,19.87
2022-08-19T08:28:07.264Z,19.85
2022-08-19T08:30:38.297Z,19.81
2022-08-19T08:33:07.976Z,20.05
2022-08-19T08:35:37.795Z,20.15
2022-08-19T08:38:06.458Z,20.00
2022-08-19T08:40:41.855Z,19.99
2022-08-19T08:43:16.147Z,20.00
2022-08-19T08:45:53.919Z,20.15
2022-08-19T08:48:34.246Z,20.11
2022-08-19T08:51:10.636Z,20.15
2022-08-19T08:53:41.963Z,20.02
2022-08-19T08:56:17.144Z,20.04
2022-08-19T08:58:56.586Z,20.09
2022-08-19T09:01:24.893Z,20.14
2022-08-19T09:04:03.096Z,20.14
2022-08-19T09:06:41.006Z,20.13
2022-08-19T09:09:16.808Z,20.11
2022-08-19T09:12:01.787Z,20.11
2022-08-19T09:14:50.692Z,20.06
2022-08-19T09:17:22.051Z,20.15
2022-08-19T09:19:57.533Z,20.11
2022-08-19T09:22:27.895Z,19.97
2022-08-19T09:24:57.691Z,19.99
2022-08-19T09:27:42.768Z,19.96
2022-08-19T09:30:16.327Z,20.02
2022-08-19T09:32:53.063Z,19.95
2022-08-19T09:35:24.953Z,19.97
2022-08-19T09:38:00.059Z,19.99
2022-08-19T09:40:37.778Z,19.91
2022-08-19T09:43:13.035Z,19.99
2022-08-19T09:45:42.761Z,20.07
2022-08-19T09:48:19.095Z,20.20
2022-08-19T09:50:53.292Z,20.20
2022-08-19T09:53:26.598Z,20.28
2022-08-19T09:56:00.829Z,20.34
2022-08-19T09:58:37.149Z,20.43
2022-08-19T10:01:07.121Z,20.46
2022-08-19T10:03:38.454Z,20.50
2022-08-19T10:06:15.150Z,20.49
2022-08-19T10:08:50.416Z,20.50
2022-08-19T10:11:28.209Z,20.49
2022-08-19T10:14:03.294Z,20.64
2022-08-19T10:16:31.599Z,20.59
2022-08-19T10:19:11.681Z,20.68
2022-08-19T10:21:42.493Z,20.62
2022-08-19T10:24:11.439Z,20.75
2022-08-19T10:26:43.083Z,20.84
2022-08-19T10:29:32.853Z,20.94
2022-08-19T10:32:02.590Z,21.17
2022-08-19T10:34:34.386Z,21.16
2022-08-19T10:37:10.738Z,21.06
2022-08-19T10:39:43.359Z,21.23
2022-08-19T10:42:14.045Z,21.19
2022-08-19T10:44:43.593Z,21.57
2022-08-19T10:47:24.981Z,22.11
2022-08-19T10:50:13.105Z,22.44
2022-08-19T10:52:50.639Z,22.46
2022-08-19T10:55:42.765Z,22.82
2022-08-19T10:58:15.427Z,23.06
2022-08-19T11:00:54.908Z,23.06
2022-08-19T11:03:26.564Z,22.92
2022-08-19T11:06:07.833Z,22.58
2022-08-19T11:08:41.356Z,22.88
2022-08-19T11:11:10.315Z,22.58
2022-08-19T11:13:41.245Z,22.70
2022-08-19T11:16:21.158Z,23.29
2022-08-19T11:18:52.964Z,23.30
2022-08-19T11:21:26.038Z,23.64
2022-08-19T11:24:03.203Z,23.97
2022-08-19T11:26:34.092Z,23.66
2022-08-19T11:29:07.391Z,23.67
2022-08-19T11:31:39.395Z,24.03
2022-08-19T11:34:09.952Z,24.23
2022-08-19T11:36:46.384Z,24.65
2022-08-19T11:39:24.389Z,24.46
2022-08-19T11:41:56.279Z,24.28
2022-08-19T11:44:28.747Z,24.19
2022-08-19T11:47:08.764Z,23.65
2022-08-19T11:49:40.738Z,23.61
2022-08-19T11:52:14.581Z,23.51
2022-08-19T11:54:44.319Z,23.16
2022-08-19T11:57:17.867Z,23.11
2022-08-19T11:59:51.531Z,23.22
2022-08-19T12:02:20.161Z,23.06
2022-08-19T12:04:51.206Z,23.42
2022-08-19T12:07:19.664Z,23.83
2022-08-19T12:09:50.589Z,23.88
2022-08-19T12:12:19.106Z,23.83
2022-08-19T12:14:47.591Z,23.59
2022-08-19T12:17:16.254Z,23.28
2022-08-19T12:19:44.638Z,23.45
2022-08-19T12:22:13.413Z,23.16
2022-08-19T12:24:44.563Z,22.87
2022-08-19T12:27:32.179Z,23.17
2022-08-19T12:30:10.037Z,23.59
2022-08-19T12:32:38.660Z,23.89
2022-08-19T12:35:10.073Z,23.96
2022-08-19T12:37:41.573Z,24.04
2022-08-19T12:40:12.987Z,24.48
2022-08-19T12:42:43.307Z,25.09
2022-08-19T12:45:13.028Z,25.25
2022-08-19T12:47:46.179Z,24.88
2022-08-19T12:50:16.022Z,24.44
2022-08-19T12:52:44.326Z,24.26
2022-08-19T12:55:15.391Z,24.18
2022-08-19T12:57:45.107Z,24.47
2022-08-19T13:00:15.878Z,24.56
2022-08-19T13:02:46.560Z,24.78
2022-08-19T13:05:21.077Z,25.34
2022-08-19T13:07:49.610Z,26.19
2022-08-19T13:10:24.502Z,25.35
2022-08-19T13:12:57.179Z,26.01
2022-08-19T13:15:26.108Z,26.36
2022-08-19T13:17:56.926Z,25.68
2022-08-19T13:20:26.489Z,24.64
2022-08-19T13:22:58.269Z,24.18
2022-08-19T13:25:27.619Z,23.97
2022-08-19T13:28:00.238Z,24.01
2022-08-19T13:30:46.145Z,24.00
2022-08-19T13:33:15.571Z,24.11
2022-08-19T13:35:49.966Z,24.15
2022-08-19T13:38:22.757Z,24.16
2022-08-19T13:40:52.492Z,24.89
2022-08-19T13:43:24.022Z,25.19
2022-08-19T13:45:54.837Z,24.95
2022-08-19T13:48:24.646Z,24.46
2022-08-19T13:50:54.312Z,24.27
2022-08-19T13:53:22.593Z,23.75
2022-08-19T13:55:52.050Z,23.47
2022-08-19T13:58:22.017Z,23.28
2022-08-19T14:00:50.745Z,22.84
2022-08-19T14:03:23.910Z,22.64
2022-08-19T14:05:53.449Z,22.43
2022-08-19T14:08:21.887Z,22.37
2022-08-19T14:10:51.682Z,22.28
2022-08-19T14:13:23.566Z,22.13
2022-08-19T14:15:54.165Z,21.83
2022-08-19T14:18:22.997Z,21.33
2022-08-19T14:20:57.262Z,20.93
2022-08-19T14:23:28.911Z,20.70
2022-08-19T14:26:05.918Z,20.77
2022-08-19T14:28:36.063Z,20.81
2022-08-19T14:31:04.356Z,20.75
2022-08-19T14:33:33.607Z,20.54
2022-08-19T14:36:03.064Z,20.57
2022-08-19T14:38:34.344Z,20.85
2022-08-19T14:41:17.383Z,21.10
2022-08-19T14:43:48.411Z,21.33
2022-08-19T14:46:21.989Z,21.44
2022-08-19T14:48:56.092Z,21.28
2022-08-19T14:51:27.712Z,21.38
2022-08-19T14:53:59.072Z,21.54
2022-08-19T14:56:29.177Z,21.88
2022-08-19T14:59:02.094Z,22.27
2022-08-19T15:01:30.568Z,22.37
2022-08-19T15:04:04.023Z,22.86
2022-08-19T15:06:32.722Z,23.55
2022-08-19T15:09:04.229Z,24.50
2022-08-19T15:11:35.108Z,25.32
2022-08-19T15:14:06.288Z,26.40
2022-08-19T15:16:34.842Z,27.41
2022-08-19T15:19:03.562Z,26.47
2022-08-19T15:21:33.532Z,27.32
2022-08-19T15:24:02.721Z,27.04
2022-08-19T15:26:36.246Z,26.48
2022-08-19T15:29:06.986Z,27.42
2022-08-19T15:31:38.073Z,27.36
2022-08-19T15:34:10.201Z,27.98
2022-08-19T15:36:39.087Z,27.80
2022-08-19T15:39:14.149Z,27.46
2022-08-19T15:41:45.240Z,26.31
2022-08-19T15:44:18.622Z,25.07
2022-08-19T15:46:50.390Z,24.47
2022-08-19T15:49:21.101Z,23.57
2022-08-19T15:51:51.990Z,23.43
2022-08-19T15:54:23.382Z,23.76
2022-08-19T15:57:12.825Z,23.45
2022-08-19T16:00:00.128Z,22.80
2022-08-19T16:02:53.738Z,22.60
2022-08-19T16:05:46.093Z,22.28
2022-08-19T16:08:15.570Z,22.31
2022-08-19T16:10:46.034Z,22.05
2022-08-19T16:13:17.072Z,22.08
2022-08-19T16:15:46.809Z,22.17
2022-08-19T16:18:15.578Z,22.34
2022-08-19T16:20:44.344Z,22.57
2022-08-19T16:23:12.598Z,22.85
2022-08-19T16:25:40.895Z,22.95
2022-08-19T16:28:10.629Z,22.98
2022-08-19T16:30:43.116Z,22.97
2022-08-19T16:33:23.285Z,22.78
2022-08-19T16:36:00.065Z,22.73
2022-08-19T16:38:31.434Z,22.66
2022-08-19T16:41:01.462Z,22.27
2022-08-19T16:43:32.110Z,22.17
2022-08-19T16:46:01.656Z,22.02
2022-08-19T16:48:34.771Z,22.02
2022-08-19T16:51:09.441Z,22.08
2022-08-19T16:53:43.029Z,21.94
2022-08-19T16:56:12.762Z,21.81
2022-08-19T16:58:41.086Z,21.89
2022-08-19T17:01:11.301Z,21.90
2022-08-19T17:03:41.267Z,21.96
2022-08-19T17:06:15.892Z,22.05
2022-08-19T17:08:52.915Z,22.05
2022-08-19T17:11:32.291Z,22.11
2022-08-19T17:14:02.228Z,22.22
2022-08-19T17:16:34.877Z,22.23
2022-08-19T17:19:07.044Z,22.16
2022-08-19T17:21:37.800Z,22.18
2022-08-19T17:24:08.758Z,22.10
2022-08-19T17:26:42.701Z,22.09
2022-08-19T17:29:12.037Z,22.05
2022-08-19T17:31:40.360Z,22.02
2022-08-19T17:34:13.027Z,21.92
2022-08-19T17:36:43.872Z,21.84
2022-08-19T17:39:12.148Z,21.79
2022-08-19T17:41:40.478Z,21.77
2022-08-19T17:44:13.135Z,21.74
2022-08-19T17:46:42.644Z,21.66
2022-08-19T17:49:14.466Z,21.57
2022-08-19T17:51:47.132Z,21.65
2022-08-19T17:54:18.879Z,21.46
2022-08-19T17:56:51.207Z,21.46
2022-08-19T17:59:19.542Z,21.40
2022-08-19T18:01:53.681Z,21.46
2022-08-19T18:04:25.490Z,21.50
2022-08-19T18:06:55.424Z,21.48
2022-08-19T18:09:26.357Z,21.46
2022-08-19T18:11:56.983Z,21.38
2022-08-19T18:14:33.726Z,21.34
2022-08-19T18:17:06.345Z,21.30
2022-08-19T18:19:41.442Z,21.25
2022-08-19T18:22:14.085Z,21.23
2022-08-19T18:24:46.051Z,21.17
2022-08-19T18:27:17.488Z,21.15
2022-08-19T18:29:49.031Z,21.11
2022-08-19T18:32:23.118Z,21.11
2022-08-19T18:34:56.456Z,21.09
2022-08-19T18:37:26.839Z,21.11
2022-08-19T18:40:28.813Z,21.13
2022-08-19T18:43:16.603Z,21.07
2022-08-19T18:46:03.031Z,21.03
2022-08-19T18:48:52.683Z,20.98
2022-08-19T18:51:28.160Z,20.77
2022-08-19T18:54:00.036Z,20.63
2022-08-19T18:56:32.257Z,20.55
2022-08-19T18:59:02.601Z,20.54
2022-08-19T19:01:35.552Z,20.46
2022-08-19T19:04:07.010Z,20.40
2022-08-19T19:06:40.434Z,20.33
2022-08-19T19:09:10.848Z,20.30
2022-08-19T19:11:41.071Z,20.25
2022-08-19T19:14:23.028Z,20.17
2022-08-19T19:17:04.414Z,20.17
2022-08-19T19:19:42.371Z,20.16
2022-08-19T19:22:14.265Z,20.06
2022-08-19T19:24:44.244Z,20.05
2022-08-19T19:27:14.519Z,20.03
2022-08-19T19:29:47.427Z,20.04
2022-08-19T19:32:23.388Z,20.02
2022-08-19T19:34:52.787Z,20.02
2022-08-19T19:37:23.477Z,20.02
2022-08-19T19:39:54.335Z,20.05
2022-08-19T19:42:24.202Z,20.10
2022-08-19T19:44:56.511Z,20.01
2022-08-19T19:47:25.701Z,19.97
2022-08-19T19:52:49.972Z,19.87
2022-08-19T19:55:21.531Z,19.86
2022-08-19T19:57:53.771Z,19.87
2022-08-19T20:00:26.481Z,19.87
2022-08-19T20:02:56.870Z,19.71
2022-08-19T20:05:28.789Z,19.58
2022-08-19T20:08:16.169Z,19.57
2022-08-19T20:10:46.963Z,19.55
2022-08-19T20:13:17.797Z,19.58
2022-08-19T20:15:46.685Z,19.46
2022-08-19T20:18:15.379Z,19.43
2022-08-19T20:20:45.032Z,19.43
2022-08-19T20:23:15.229Z,19.50
2022-08-19T20:25:46.865Z,19.44
2022-08-19T20:28:17.924Z,19.44
2022-08-19T20:30:48.065Z,19.35
2022-08-19T20:33:19.649Z,19.39
2022-08-19T20:35:50.977Z,19.32
2022-08-19T20:38:20.619Z,19.41
2022-08-19T20:40:48.880Z,19.40
2022-08-19T20:43:17.141Z,19.42
2022-08-19T20:45:48.065Z,19.42
2022-08-19T20:48:21.027Z,19.38
2022-08-19T20:50:49.477Z,19.37
2022-08-19T20:53:23.757Z,19.31
2022-08-19T20:55:59.945Z,19.31
2022-08-19T20:58:28.928Z,19.29
2022-08-19T21:01:00.864Z,19.27
2022-08-19T21:03:32.539Z,19.25
2022-08-19T21:06:04.382Z,19.27
2022-08-19T21:08:34.269Z,19.25
2022-08-19T21:11:03.453Z,19.25
2022-08-19T21:13:32.291Z,19.21
2022-08-19T21:16:01.981Z,19.09
2022-08-19T21:18:35.441Z,19.12
2022-08-19T21:21:06.897Z,19.03
2022-08-19T21:23:37.000Z,19.07
2022-08-19T21:26:06.612Z,19.05
2022-08-19T21:28:36.372Z,19.10
2022-08-19T21:31:07.125Z,19.00
2022-08-19T21:33:39.069Z,18.96
2022-08-19T21:36:08.155Z,18.91
2022-08-19T21:38:38.926Z,18.94
2022-08-19T21:41:08.352Z,18.94
2022-08-19T21:43:37.386Z,18.93
2022-08-19T21:46:06.083Z,18.94
2022-08-19T21:48:34.435Z,18.97
2022-08-19T21:51:02.981Z,18.92
2022-08-19T21:53:34.429Z,18.86
2022-08-19T21:56:06.459Z,18.87
2022-08-19T21:58:38.119Z,18.84
2022-08-19T22:01:08.150Z,18.84
2022-08-19T22:03:38.640Z,18.84
2022-08-19T22:06:07.426Z,18.72
2022-08-19T22:08:42.247Z,18.65
2022-08-19T22:11:14.368Z,18.68
2022-08-19T22:13:42.646Z,18.77
2022-08-19T22:16:14.120Z,18.79
2022-08-19T22:18:48.473Z,18.76
2022-08-19T22:21:37.419Z,18.74
2022-08-19T22:24:11.872Z,18.73
2022-08-19T22:26:49.222Z,18.77
2022-08-19T22:29:17.827Z,18.78
2022-08-19T22:31:54.311Z,18.83
2022-08-19T22:34:23.239Z,18.83
2022-08-19T22:36:51.749Z,18.79
2022-08-19T22:39:22.762Z,18.71
2022-08-19T22:41:52.702Z,18.64
2022-08-19T22:44:20.995Z,18.54
2022-08-19T22:46:50.441Z,18.46
2022-08-19T22:49:21.148Z,18.44
2022-08-19T22:52:06.645Z,18.33
2022-08-19T22:54:36.221Z,18.27
2022-08-19T22:57:06.061Z,18.24
2022-08-19T22:59:36.042Z,18.24
2022-08-19T23:02:04.744Z,18.13
2022-08-19T23:04:37.160Z,18.08
2022-08-19T23:07:05.985Z,17.98
2022-08-19T23:09:34.410Z,18.05
2022-08-19T23:12:09.520Z,17.91
2022-08-19T23:14:38.308Z,17.88
2022-08-19T23:17:06.969Z,17.77
2022-08-19T23:19:38.410Z,17.76
2022-08-19T23:22:08.395Z,17.67
2022-08-19T23:24:39.361Z,17.67
2022-08-19T23:27:26.730Z,17.59
2022-08-19T23:30:12.460Z,17.52
2022-08-19T23:32:43.284Z,17.54
2022-08-19T23:35:12.386Z,17.55
2022-08-19T23:37:43.669Z,17.54
2022-08-19T23:40:12.535Z,17.58
2022-08-19T23:42:46.641Z,17.56
2022-08-19T23:45:15.826Z,17.64
2022-08-19T23:47:53.360Z,17.70
2022-08-19T23:50:22.765Z,17.62
2022-08-19T23:52:57.219Z,17.66
2022-08-19T23:55:27.752Z,17.70
2022-08-19T23:57:58.190Z,17.75
